sensor_id;sensor_type;location;lat;lon;timestamp;P1;durP1;ratioP1;P2;durP2;ratioP2
23802;SDS011;12082;51.786;6.018;2022-11-20T00:00:00;27.43;;;24.53;;
23802;SDS011;12082;51.786;6.018;2022-11-20T00:02:26;25.63;;;22.93;;
23802;SDS011;12082;51.786;6.018;2022-11-20T00:04:52;26.90;;;24.17;;
23802;SDS011;12082;51.786;6.018;2022-11-20T00:07:18;26.70;;;23.90;;
23802;SDS011;12082;51.786;6.018;2022-11-20T00:09:44;26.87;;;23.70;;
23802;SDS011;12082;51.786;6.018;2022-11-20T00:12:10;27.27;;;24.27;;
23802;SDS011;12082;51.786;6.018;2022-11-20T00:14:35;27.67;;;23.60;;
23802;SDS011;12082;51.786;6.018;2022-11-20T00:17:01;29.10;;;24.90;;
23802;SDS011;12082;51.786;6.018;2022-11-20T00:19:27;25.80;;;23.07;;
23802;SDS011;12082;51.786;6.018;2022-11-20T00:21:53;29.47;;;24.03;;
23802;SDS011;12082;51.786;6.018;2022-11-20T00:24:20;31.93;;;24.43;;
23802;SDS011;12082;51.786;6.018;2022-11-20T00:26:46;27.47;;;24.47;;
23802;SDS011;12082;51.786;6.018;2022-11-20T00:29:12;30.90;;;24.20;;
23802;SDS011;12082;51.786;6.018;2022-11-20T00:31:38;26.20;;;23.60;;
23802;SDS011;12082;51.786;6.018;2022-11-20T00:34:04;27.97;;;23.87;;
23802;SDS011;12082;51.786;6.018;2022-11-20T00:36:31;29.87;;;24.23;;
23802;SDS011;12082;51.786;6.018;2022-11-20T00:38:58;29.63;;;23.60;;
23802;SDS011;12082;51.786;6.018;2022-11-20T00:41:24;26.73;;;24.03;;
23802;SDS011;12082;51.786;6.018;2022-11-20T00:43:51;28.83;;;23.53;;
23802;SDS011;12082;51.786;6.018;2022-11-20T00:46:18;31.30;;;22.97;;
23802;SDS011;12082;51.786;6.018;2022-11-20T00:48:44;25.43;;;22.70;;
23802;SDS011;12082;51.786;6.018;2022-11-20T00:51:11;27.07;;;22.93;;
23802;SDS011;12082;51.786;6.018;2022-11-20T00:53:37;26.03;;;23.30;;
23802;SDS011;12082;51.786;6.018;2022-11-20T00:56:04;26.43;;;22.93;;
23802;SDS011;12082;51.786;6.018;2022-11-20T00:58:31;29.70;;;23.47;;
23802;SDS011;12082;51.786;6.018;2022-11-20T01:03:33;24.83;;;21.90;;
23802;SDS011;12082;51.786;6.018;2022-11-20T01:06:21;29.70;;;25.13;;
23802;SDS011;12082;51.786;6.018;2022-11-20T01:08:45;27.33;;;24.43;;
23802;SDS011;12082;51.786;6.018;2022-11-20T01:11:18;27.53;;;22.10;;
23802;SDS011;12082;51.786;6.018;2022-11-20T01:13:45;25.83;;;23.10;;
23802;SDS011;12082;51.786;6.018;2022-11-20T01:16:13;29.40;;;23.33;;
23802;SDS011;12082;51.786;6.018;2022-11-20T01:18:40;26.60;;;23.40;;
23802;SDS011;12082;51.786;6.018;2022-11-20T01:21:07;24.63;;;22.27;;
23802;SDS011;12082;51.786;6.018;2022-11-20T01:23:34;28.33;;;24.03;;
23802;SDS011;12082;51.786;6.018;2022-11-20T01:26:01;26.87;;;23.00;;
23802;SDS011;12082;51.786;6.018;2022-11-20T01:28:28;29.00;;;22.63;;
23802;SDS011;12082;51.786;6.018;2022-11-20T01:30:54;24.20;;;21.73;;
23802;SDS011;12082;51.786;6.018;2022-11-20T01:33:20;26.00;;;21.97;;
23802;SDS011;12082;51.786;6.018;2022-11-20T01:35:45;24.70;;;22.10;;
23802;SDS011;12082;51.786;6.018;2022-11-20T01:38:11;26.07;;;22.53;;
23802;SDS011;12082;51.786;6.018;2022-11-20T01:40:37;24.07;;;21.57;;
23802;SDS011;12082;51.786;6.018;2022-11-20T01:43:37;30.30;;;22.77;;
23802;SDS011;12082;51.786;6.018;2022-11-20T01:46:01;26.27;;;23.57;;
23802;SDS011;12082;51.786;6.018;2022-11-20T01:51:21;25.83;;;23.13;;
23802;SDS011;12082;51.786;6.018;2022-11-20T01:53:49;25.10;;;21.87;;
23802;SDS011;12082;51.786;6.018;2022-11-20T01:56:16;25.70;;;22.93;;
23802;SDS011;12082;51.786;6.018;2022-11-20T01:58:44;25.43;;;22.67;;
23802;SDS011;12082;51.786;6.018;2022-11-20T02:01:13;24.97;;;22.33;;
23802;SDS011;12082;51.786;6.018;2022-11-20T02:03:39;28.87;;;22.50;;
23802;SDS011;12082;51.786;6.018;2022-11-20T02:06:14;28.83;;;23.17;;
23802;SDS011;12082;51.786;6.018;2022-11-20T02:08:42;28.17;;;23.90;;
23802;SDS011;12082;51.786;6.018;2022-11-20T02:11:08;25.27;;;22.23;;
23802;SDS011;12082;51.786;6.018;2022-11-20T02:13:34;26.73;;;21.90;;
23802;SDS011;12082;51.786;6.018;2022-11-20T02:16:14;27.43;;;21.90;;
23802;SDS011;12082;51.786;6.018;2022-11-20T02:18:40;25.53;;;21.50;;
23802;SDS011;12082;51.786;6.018;2022-11-20T02:21:09;24.50;;;21.77;;
23802;SDS011;12082;51.786;6.018;2022-11-20T02:26:05;27.60;;;24.33;;
23802;SDS011;12082;51.786;6.018;2022-11-20T02:28:33;26.13;;;23.37;;
23802;SDS011;12082;51.786;6.018;2022-11-20T02:30:59;26.43;;;23.57;;
23802;SDS011;12082;51.786;6.018;2022-11-20T02:33:26;28.33;;;24.13;;
23802;SDS011;12082;51.786;6.018;2022-11-20T02:35:52;30.03;;;24.40;;
23802;SDS011;12082;51.786;6.018;2022-11-20T02:38:18;26.13;;;23.33;;
23802;SDS011;12082;51.786;6.018;2022-11-20T02:40:44;29.90;;;23.33;;
23802;SDS011;12082;51.786;6.018;2022-11-20T02:43:10;27.40;;;22.63;;
23802;SDS011;12082;51.786;6.018;2022-11-20T02:45:36;28.13;;;22.63;;
23802;SDS011;12082;51.786;6.018;2022-11-20T02:48:02;25.73;;;21.67;;
23802;SDS011;12082;51.786;6.018;2022-11-20T02:50:28;26.03;;;23.13;;
23802;SDS011;12082;51.786;6.018;2022-11-20T02:52:54;30.80;;;22.90;;
23802;SDS011;12082;51.786;6.018;2022-11-20T02:55:20;24.70;;;22.23;;
23802;SDS011;12082;51.786;6.018;2022-11-20T02:57:46;25.70;;;22.70;;
23802;SDS011;12082;51.786;6.018;2022-11-20T03:00:12;26.20;;;22.33;;
23802;SDS011;12082;51.786;6.018;2022-11-20T03:02:38;23.80;;;21.20;;
23802;SDS011;12082;51.786;6.018;2022-11-20T03:05:04;23.83;;;21.37;;
23802;SDS011;12082;51.786;6.018;2022-11-20T03:07:30;25.07;;;22.50;;
23802;SDS011;12082;51.786;6.018;2022-11-20T03:09:56;23.47;;;21.00;;
23802;SDS011;12082;51.786;6.018;2022-11-20T03:12:22;23.80;;;21.23;;
23802;SDS011;12082;51.786;6.018;2022-11-20T03:14:48;22.33;;;20.07;;
23802;SDS011;12082;51.786;6.018;2022-11-20T03:17:14;25.30;;;22.57;;
23802;SDS011;12082;51.786;6.018;2022-11-20T03:19:39;24.70;;;22.10;;
23802;SDS011;12082;51.786;6.018;2022-11-20T03:22:05;24.33;;;21.83;;
23802;SDS011;12082;51.786;6.018;2022-11-20T03:24:31;25.37;;;21.63;;
23802;SDS011;12082;51.786;6.018;2022-11-20T03:26:57;24.53;;;21.90;;
23802;SDS011;12082;51.786;6.018;2022-11-20T03:29:24;39.10;;;27.10;;
23802;SDS011;12082;51.786;6.018;2022-11-20T03:31:50;33.13;;;26.20;;
23802;SDS011;12082;51.786;6.018;2022-11-20T03:34:16;37.67;;;28.27;;
23802;SDS011;12082;51.786;6.018;2022-11-20T03:36:42;37.67;;;27.37;;
23802;SDS011;12082;51.786;6.018;2022-11-20T03:39:08;30.33;;;24.97;;
23802;SDS011;12082;51.786;6.018;2022-11-20T03:41:38;26.67;;;22.60;;
23802;SDS011;12082;51.786;6.018;2022-11-20T03:44:05;28.67;;;22.83;;
23802;SDS011;12082;51.786;6.018;2022-11-20T03:46:31;26.60;;;22.93;;
23802;SDS011;12082;51.786;6.018;2022-11-20T03:48:57;23.47;;;20.97;;
23802;SDS011;12082;51.786;6.018;2022-11-20T03:51:24;24.93;;;22.23;;
23802;SDS011;12082;51.786;6.018;2022-11-20T03:53:52;27.03;;;22.40;;
23802;SDS011;12082;51.786;6.018;2022-11-20T03:56:19;25.80;;;23.07;;
23802;SDS011;12082;51.786;6.018;2022-11-20T03:58:45;28.20;;;23.33;;
23802;SDS011;12082;51.786;6.018;2022-11-20T04:01:12;28.73;;;23.47;;
23802;SDS011;12082;51.786;6.018;2022-11-20T04:03:38;25.30;;;21.90;;
23802;SDS011;12082;51.786;6.018;2022-11-20T04:06:14;28.63;;;23.10;;
23802;SDS011;12082;51.786;6.018;2022-11-20T04:08:40;30.43;;;22.93;;
23802;SDS011;12082;51.786;6.018;2022-11-20T04:11:14;25.83;;;22.13;;
23802;SDS011;12082;51.786;6.018;2022-11-20T04:13:40;28.67;;;21.87;;
23802;SDS011;12082;51.786;6.018;2022-11-20T04:16:07;28.33;;;22.43;;
23802;SDS011;12082;51.786;6.018;2022-11-20T04:18:33;27.20;;;23.23;;
23802;SDS011;12082;51.786;6.018;2022-11-20T04:20:59;27.57;;;22.23;;
23802;SDS011;12082;51.786;6.018;2022-11-20T04:23:25;32.20;;;23.87;;
23802;SDS011;12082;51.786;6.018;2022-11-20T04:25:51;30.63;;;23.23;;
23802;SDS011;12082;51.786;6.018;2022-11-20T04:28:18;28.67;;;23.67;;
23802;SDS011;12082;51.786;6.018;2022-11-20T04:30:44;29.83;;;23.33;;
23802;SDS011;12082;51.786;6.018;2022-11-20T04:33:10;27.23;;;21.43;;
23802;SDS011;12082;51.786;6.018;2022-11-20T04:35:36;29.27;;;23.43;;
23802;SDS011;12082;51.786;6.018;2022-11-20T04:38:02;27.40;;;23.13;;
23802;SDS011;12082;51.786;6.018;2022-11-20T04:40:28;26.37;;;22.93;;
23802;SDS011;12082;51.786;6.018;2022-11-20T04:42:54;29.47;;;22.67;;
23802;SDS011;12082;51.786;6.018;2022-11-20T04:45:21;26.07;;;22.47;;
23802;SDS011;12082;51.786;6.018;2022-11-20T04:47:47;26.80;;;21.57;;
23802;SDS011;12082;51.786;6.018;2022-11-20T04:50:13;28.53;;;21.73;;
23802;SDS011;12082;51.786;6.018;2022-11-20T04:52:39;28.13;;;23.67;;
23802;SDS011;12082;51.786;6.018;2022-11-20T04:55:05;31.57;;;24.20;;
23802;SDS011;12082;51.786;6.018;2022-11-20T04:57:31;28.67;;;23.20;;
23802;SDS011;12082;51.786;6.018;2022-11-20T04:59:57;25.87;;;22.37;;
23802;SDS011;12082;51.786;6.018;2022-11-20T05:02:23;30.17;;;23.23;;
23802;SDS011;12082;51.786;6.018;2022-11-20T05:04:49;28.97;;;22.97;;
23802;SDS011;12082;51.786;6.018;2022-11-20T05:07:15;29.27;;;23.03;;
23802;SDS011;12082;51.786;6.018;2022-11-20T05:09:41;27.37;;;22.43;;
23802;SDS011;12082;51.786;6.018;2022-11-20T05:12:07;26.57;;;22.97;;
23802;SDS011;12082;51.786;6.018;2022-11-20T05:14:34;27.33;;;23.23;;
23802;SDS011;12082;51.786;6.018;2022-11-20T05:17:00;29.70;;;22.87;;
23802;SDS011;12082;51.786;6.018;2022-11-20T05:19:26;24.10;;;21.57;;
23802;SDS011;12082;51.786;6.018;2022-11-20T05:21:52;24.97;;;22.37;;
23802;SDS011;12082;51.786;6.018;2022-11-20T05:24:18;25.07;;;22.60;;
23802;SDS011;12082;51.786;6.018;2022-11-20T05:26:44;28.23;;;23.13;;
23802;SDS011;12082;51.786;6.018;2022-11-20T05:29:10;26.73;;;22.87;;
23802;SDS011;12082;51.786;6.018;2022-11-20T05:31:38;25.43;;;22.27;;
23802;SDS011;12082;51.786;6.018;2022-11-20T05:34:04;25.57;;;22.27;;
23802;SDS011;12082;51.786;6.018;2022-11-20T05:36:30;25.07;;;22.37;;
23802;SDS011;12082;51.786;6.018;2022-11-20T05:38:56;31.23;;;23.90;;
23802;SDS011;12082;51.786;6.018;2022-11-20T05:41:22;31.47;;;24.43;;
23802;SDS011;12082;51.786;6.018;2022-11-20T05:43:48;27.40;;;23.20;;
23802;SDS011;12082;51.786;6.018;2022-11-20T05:46:16;25.20;;;22.60;;
23802;SDS011;12082;51.786;6.018;2022-11-20T05:48:42;24.53;;;22.03;;
23802;SDS011;12082;51.786;6.018;2022-11-20T05:51:09;27.80;;;21.87;;
23802;SDS011;12082;51.786;6.018;2022-11-20T05:53:36;24.43;;;21.83;;
23802;SDS011;12082;51.786;6.018;2022-11-20T05:56:03;24.40;;;21.80;;
23802;SDS011;12082;51.786;6.018;2022-11-20T05:58:29;28.10;;;22.37;;
23802;SDS011;12082;51.786;6.018;2022-11-20T06:01:03;25.60;;;22.17;;
23802;SDS011;12082;51.786;6.018;2022-11-20T06:03:29;26.37;;;23.50;;
23802;SDS011;12082;51.786;6.018;2022-11-20T06:05:55;25.90;;;22.27;;
23802;SDS011;12082;51.786;6.018;2022-11-20T06:08:21;24.83;;;22.20;;
23802;SDS011;12082;51.786;6.018;2022-11-20T06:10:47;26.23;;;22.47;;
23802;SDS011;12082;51.786;6.018;2022-11-20T06:13:13;27.07;;;23.10;;
23802;SDS011;12082;51.786;6.018;2022-11-20T06:15:38;24.27;;;21.67;;
23802;SDS011;12082;51.786;6.018;2022-11-20T06:18:04;23.73;;;20.97;;
23802;SDS011;12082;51.786;6.018;2022-11-20T06:20:30;24.90;;;22.27;;
23802;SDS011;12082;51.786;6.018;2022-11-20T06:22:56;30.40;;;23.50;;
23802;SDS011;12082;51.786;6.018;2022-11-20T06:25:22;25.57;;;22.83;;
23802;SDS011;12082;51.786;6.018;2022-11-20T06:27:48;23.63;;;21.27;;
23802;SDS011;12082;51.786;6.018;2022-11-20T06:30:14;25.30;;;22.60;;
23802;SDS011;12082;51.786;6.018;2022-11-20T06:32:40;25.07;;;21.40;;
23802;SDS011;12082;51.786;6.018;2022-11-20T06:35:06;38.47;;;26.73;;
23802;SDS011;12082;51.786;6.018;2022-11-20T06:37:32;29.10;;;24.37;;
23802;SDS011;12082;51.786;6.018;2022-11-20T06:39:58;29.50;;;23.87;;
23802;SDS011;12082;51.786;6.018;2022-11-20T06:42:24;29.87;;;24.20;;
23802;SDS011;12082;51.786;6.018;2022-11-20T06:44:50;30.17;;;23.43;;
23802;SDS011;12082;51.786;6.018;2022-11-20T06:47:16;24.80;;;22.10;;
23802;SDS011;12082;51.786;6.018;2022-11-20T06:49:42;27.27;;;22.27;;
23802;SDS011;12082;51.786;6.018;2022-11-20T06:52:08;29.13;;;22.07;;
23802;SDS011;12082;51.786;6.018;2022-11-20T06:54:34;28.33;;;23.63;;
23802;SDS011;12082;51.786;6.018;2022-11-20T06:57:00;23.97;;;21.50;;
23802;SDS011;12082;51.786;6.018;2022-11-20T06:59:26;26.40;;;23.00;;
23802;SDS011;12082;51.786;6.018;2022-11-20T07:01:52;23.67;;;21.10;;
23802;SDS011;12082;51.786;6.018;2022-11-20T07:04:18;25.90;;;23.17;;
23802;SDS011;12082;51.786;6.018;2022-11-20T07:06:44;25.27;;;22.53;;
23802;SDS011;12082;51.786;6.018;2022-11-20T07:09:10;26.40;;;23.57;;
23802;SDS011;12082;51.786;6.018;2022-11-20T07:11:36;24.43;;;21.83;;
23802;SDS011;12082;51.786;6.018;2022-11-20T07:14:02;27.57;;;23.40;;
23802;SDS011;12082;51.786;6.018;2022-11-20T07:16:28;24.77;;;22.17;;
23802;SDS011;12082;51.786;6.018;2022-11-20T07:18:54;27.00;;;22.93;;
23802;SDS011;12082;51.786;6.018;2022-11-20T07:21:20;24.20;;;21.63;;
23802;SDS011;12082;51.786;6.018;2022-11-20T07:23:46;24.50;;;21.87;;
23802;SDS011;12082;51.786;6.018;2022-11-20T07:26:12;28.97;;;23.17;;
23802;SDS011;12082;51.786;6.018;2022-11-20T07:28:38;26.43;;;23.37;;
23802;SDS011;12082;51.786;6.018;2022-11-20T07:31:04;26.20;;;23.17;;
23802;SDS011;12082;51.786;6.018;2022-11-20T07:33:31;25.93;;;23.10;;
23802;SDS011;12082;51.786;6.018;2022-11-20T07:36:00;27.17;;;22.97;;
23802;SDS011;12082;51.786;6.018;2022-11-20T07:38:26;27.27;;;23.90;;
23802;SDS011;12082;51.786;6.018;2022-11-20T07:40:53;29.63;;;24.87;;
23802;SDS011;12082;51.786;6.018;2022-11-20T07:43:20;27.50;;;23.53;;
23802;SDS011;12082;51.786;6.018;2022-11-20T07:45:46;27.07;;;24.00;;
23802;SDS011;12082;51.786;6.018;2022-11-20T07:48:12;26.83;;;23.17;;
23802;SDS011;12082;51.786;6.018;2022-11-20T07:50:38;30.13;;;25.03;;
23802;SDS011;12082;51.786;6.018;2022-11-20T07:53:04;32.13;;;25.20;;
23802;SDS011;12082;51.786;6.018;2022-11-20T07:55:30;32.60;;;25.97;;
23802;SDS011;12082;51.786;6.018;2022-11-20T07:57:57;33.23;;;25.87;;
23802;SDS011;12082;51.786;6.018;2022-11-20T08:00:23;29.60;;;25.60;;
23802;SDS011;12082;51.786;6.018;2022-11-20T08:02:49;32.40;;;25.50;;
23802;SDS011;12082;51.786;6.018;2022-11-20T08:05:15;28.17;;;25.07;;
23802;SDS011;12082;51.786;6.018;2022-11-20T08:07:42;33.80;;;25.13;;
23802;SDS011;12082;51.786;6.018;2022-11-20T08:10:09;33.53;;;26.07;;
23802;SDS011;12082;51.786;6.018;2022-11-20T08:12:36;30.30;;;24.07;;
23802;SDS011;12082;51.786;6.018;2022-11-20T08:15:20;29.20;;;25.20;;
23802;SDS011;12082;51.786;6.018;2022-11-20T08:17:46;40.40;;;28.53;;
23802;SDS011;12082;51.786;6.018;2022-11-20T08:20:12;41.40;;;28.97;;
23802;SDS011;12082;51.786;6.018;2022-11-20T08:22:38;39.20;;;29.90;;
23802;SDS011;12082;51.786;6.018;2022-11-20T08:25:04;39.97;;;28.73;;
23802;SDS011;12082;51.786;6.018;2022-11-20T08:27:31;32.90;;;27.37;;
23802;SDS011;12082;51.786;6.018;2022-11-20T08:29:57;39.80;;;27.77;;
23802;SDS011;12082;51.786;6.018;2022-11-20T08:32:23;38.33;;;28.80;;
23802;SDS011;12082;51.786;6.018;2022-11-20T08:34:49;39.83;;;29.40;;
23802;SDS011;12082;51.786;6.018;2022-11-20T08:37:15;39.13;;;29.00;;
23802;SDS011;12082;51.786;6.018;2022-11-20T08:39:41;41.73;;;30.63;;
23802;SDS011;12082;51.786;6.018;2022-11-20T08:42:07;38.70;;;29.43;;
23802;SDS011;12082;51.786;6.018;2022-11-20T08:44:33;38.07;;;28.40;;
23802;SDS011;12082;51.786;6.018;2022-11-20T08:46:59;35.97;;;27.93;;
23802;SDS011;12082;51.786;6.018;2022-11-20T08:49:25;36.30;;;28.83;;
23802;SDS011;12082;51.786;6.018;2022-11-20T08:51:51;35.67;;;27.27;;
23802;SDS011;12082;51.786;6.018;2022-11-20T08:54:20;33.53;;;27.17;;
23802;SDS011;12082;51.786;6.018;2022-11-20T08:56:47;37.17;;;27.03;;
23802;SDS011;12082;51.786;6.018;2022-11-20T08:59:13;35.50;;;28.53;;
23802;SDS011;12082;51.786;6.018;2022-11-20T09:01:39;41.17;;;29.30;;
23802;SDS011;12082;51.786;6.018;2022-11-20T09:04:05;35.03;;;28.37;;
23802;SDS011;12082;51.786;6.018;2022-11-20T09:06:31;36.17;;;29.57;;
23802;SDS011;12082;51.786;6.018;2022-11-20T09:08:56;38.63;;;30.70;;
23802;SDS011;12082;51.786;6.018;2022-11-20T09:11:22;37.33;;;27.10;;
23802;SDS011;12082;51.786;6.018;2022-11-20T09:13:49;34.83;;;29.33;;
23802;SDS011;12082;51.786;6.018;2022-11-20T09:16:15;34.83;;;29.47;;
23802;SDS011;12082;51.786;6.018;2022-11-20T09:18:41;34.80;;;27.70;;
23802;SDS011;12082;51.786;6.018;2022-11-20T09:21:11;36.47;;;29.03;;
23802;SDS011;12082;51.786;6.018;2022-11-20T09:23:38;40.53;;;28.20;;
23802;SDS011;12082;51.786;6.018;2022-11-20T09:26:04;30.97;;;26.47;;
23802;SDS011;12082;51.786;6.018;2022-11-20T09:28:31;34.40;;;27.50;;
23802;SDS011;12082;51.786;6.018;2022-11-20T09:30:57;32.77;;;28.20;;
23802;SDS011;12082;51.786;6.018;2022-11-20T09:33:23;32.80;;;27.37;;
23802;SDS011;12082;51.786;6.018;2022-11-20T09:35:49;40.00;;;30.53;;
23802;SDS011;12082;51.786;6.018;2022-11-20T09:38:15;33.07;;;28.17;;
23802;SDS011;12082;51.786;6.018;2022-11-20T09:40:44;37.83;;;29.93;;
23802;SDS011;12082;51.786;6.018;2022-11-20T09:50:49;40.77;;;30.73;;
23802;SDS011;12082;51.786;6.018;2022-11-20T09:53:20;42.60;;;30.40;;
23802;SDS011;12082;51.786;6.018;2022-11-20T09:55:49;38.53;;;29.60;;
23802;SDS011;12082;51.786;6.018;2022-11-20T09:58:27;38.87;;;29.40;;
23802;SDS011;12082;51.786;6.018;2022-11-20T10:00:56;39.70;;;29.27;;
23802;SDS011;12082;51.786;6.018;2022-11-20T10:03:29;35.83;;;28.90;;
23802;SDS011;12082;51.786;6.018;2022-11-20T10:06:01;35.87;;;29.67;;
23802;SDS011;12082;51.786;6.018;2022-11-20T10:08:29;34.63;;;27.87;;
23802;SDS011;12082;51.786;6.018;2022-11-20T10:11:02;36.60;;;28.60;;
23802;SDS011;12082;51.786;6.018;2022-11-20T10:13:39;32.07;;;27.70;;
23802;SDS011;12082;51.786;6.018;2022-11-20T10:21:58;37.20;;;28.20;;
23802;SDS011;12082;51.786;6.018;2022-11-20T10:29:41;33.67;;;27.13;;
23802;SDS011;12082;51.786;6.018;2022-11-20T10:32:16;37.50;;;29.20;;
23802;SDS011;12082;51.786;6.018;2022-11-20T10:37:29;32.33;;;28.93;;
23802;SDS011;12082;51.786;6.018;2022-11-20T10:42:48;35.43;;;27.90;;
23802;SDS011;12082;51.786;6.018;2022-11-20T10:47:54;37.40;;;30.03;;
23802;SDS011;12082;51.786;6.018;2022-11-20T10:50:20;34.23;;;28.67;;
23802;SDS011;12082;51.786;6.018;2022-11-20T10:53:01;35.20;;;28.87;;
23802;SDS011;12082;51.786;6.018;2022-11-20T10:55:40;31.60;;;27.63;;
23802;SDS011;12082;51.786;6.018;2022-11-20T10:58:14;31.90;;;28.40;;
23802;SDS011;12082;51.786;6.018;2022-11-20T11:00:42;36.10;;;29.50;;
23802;SDS011;12082;51.786;6.018;2022-11-20T11:03:25;36.67;;;30.10;;
23802;SDS011;12082;51.786;6.018;2022-11-20T11:06:08;32.23;;;28.77;;
23802;SDS011;12082;51.786;6.018;2022-11-20T11:08:37;37.07;;;28.53;;
23802;SDS011;12082;51.786;6.018;2022-11-20T11:11:10;34.57;;;27.53;;
23802;SDS011;12082;51.786;6.018;2022-11-20T11:13:40;38.43;;;29.07;;
23802;SDS011;12082;51.786;6.018;2022-11-20T11:16:16;37.27;;;29.37;;
23802;SDS011;12082;51.786;6.018;2022-11-20T11:18:45;32.97;;;29.03;;
23802;SDS011;12082;51.786;6.018;2022-11-20T11:21:11;36.33;;;28.97;;
23802;SDS011;12082;51.786;6.018;2022-11-20T11:23:40;34.10;;;28.67;;
23802;SDS011;12082;51.786;6.018;2022-11-20T11:26:18;36.40;;;29.10;;
23802;SDS011;12082;51.786;6.018;2022-11-20T11:29:00;35.03;;;29.03;;
23802;SDS011;12082;51.786;6.018;2022-11-20T11:31:28;34.37;;;27.90;;
23802;SDS011;12082;51.786;6.018;2022-11-20T11:34:08;31.83;;;27.80;;
23802;SDS011;12082;51.786;6.018;2022-11-20T11:36:36;31.13;;;27.07;;
23802;SDS011;12082;51.786;6.018;2022-11-20T11:39:03;34.70;;;28.97;;
23802;SDS011;12082;51.786;6.018;2022-11-20T11:41:33;33.30;;;28.47;;
23802;SDS011;12082;51.786;6.018;2022-11-20T11:44:03;34.17;;;28.60;;
23802;SDS011;12082;51.786;6.018;2022-11-20T11:46:49;38.63;;;29.30;;
23802;SDS011;12082;51.786;6.018;2022-11-20T11:49:18;32.80;;;27.53;;
23802;SDS011;12082;51.786;6.018;2022-11-20T11:54:21;33.83;;;28.50;;
23802;SDS011;12082;51.786;6.018;2022-11-20T11:56:49;34.00;;;28.70;;
23802;SDS011;12082;51.786;6.018;2022-11-20T11:59:18;35.73;;;30.07;;
23802;SDS011;12082;51.786;6.018;2022-11-20T12:01:49;35.83;;;29.50;;
23802;SDS011;12082;51.786;6.018;2022-11-20T12:04:19;41.00;;;31.43;;
23802;SDS011;12082;51.786;6.018;2022-11-20T12:06:48;39.47;;;30.87;;
23802;SDS011;12082;51.786;6.018;2022-11-20T12:09:16;37.73;;;33.60;;
23802;SDS011;12082;51.786;6.018;2022-11-20T12:11:49;34.87;;;30.63;;
23802;SDS011;12082;51.786;6.018;2022-11-20T12:14:20;38.50;;;30.47;;
23802;SDS011;12082;51.786;6.018;2022-11-20T12:16:49;37.20;;;31.30;;
23802;SDS011;12082;51.786;6.018;2022-11-20T12:19:15;40.03;;;31.83;;
23802;SDS011;12082;51.786;6.018;2022-11-20T12:27:08;38.63;;;32.57;;
23802;SDS011;12082;51.786;6.018;2022-11-20T12:29:47;40.70;;;31.93;;
23802;SDS011;12082;51.786;6.018;2022-11-20T12:32:31;37.60;;;31.13;;
23802;SDS011;12082;51.786;6.018;2022-11-20T12:35:17;41.57;;;31.07;;
23802;SDS011;12082;51.786;6.018;2022-11-20T12:40:35;37.07;;;31.67;;
23802;SDS011;12082;51.786;6.018;2022-11-20T12:43:13;34.50;;;29.83;;
23802;SDS011;12082;51.786;6.018;2022-11-20T12:46:05;35.97;;;30.20;;
23802;SDS011;12082;51.786;6.018;2022-11-20T12:53:33;37.83;;;31.27;;
23802;SDS011;12082;51.786;6.018;2022-11-20T12:58:44;34.37;;;30.17;;
23802;SDS011;12082;51.786;6.018;2022-11-20T13:01:19;39.00;;;32.17;;
23802;SDS011;12082;51.786;6.018;2022-11-20T13:06:50;38.53;;;31.30;;
23802;SDS011;12082;51.786;6.018;2022-11-20T13:09:16;44.27;;;32.60;;
23802;SDS011;12082;51.786;6.018;2022-11-20T13:14:35;40.70;;;31.80;;
23802;SDS011;12082;51.786;6.018;2022-11-20T13:17:05;35.70;;;31.30;;
23802;SDS011;12082;51.786;6.018;2022-11-20T13:19:32;40.67;;;31.13;;
23802;SDS011;12082;51.786;6.018;2022-11-20T13:21:58;37.67;;;31.40;;
23802;SDS011;12082;51.786;6.018;2022-11-20T13:24:25;34.43;;;30.57;;
23802;SDS011;12082;51.786;6.018;2022-11-20T13:27:02;36.67;;;31.67;;
23802;SDS011;12082;51.786;6.018;2022-11-20T13:29:29;35.67;;;30.07;;
23802;SDS011;12082;51.786;6.018;2022-11-20T13:32:13;44.23;;;30.97;;
23802;SDS011;12082;51.786;6.018;2022-11-20T13:34:51;41.73;;;32.53;;
23802;SDS011;12082;51.786;6.018;2022-11-20T13:37:58;35.37;;;30.33;;
23802;SDS011;12082;51.786;6.018;2022-11-20T13:42:37;41.27;;;32.13;;
23802;SDS011;12082;51.786;6.018;2022-11-20T13:45:08;37.17;;;30.00;;
23802;SDS011;12082;51.786;6.018;2022-11-20T13:47:35;43.23;;;32.20;;
23802;SDS011;12082;51.786;6.018;2022-11-20T13:50:02;41.23;;;33.00;;
23802;SDS011;12082;51.786;6.018;2022-11-20T13:52:36;41.20;;;33.00;;
23802;SDS011;12082;51.786;6.018;2022-11-20T13:55:26;40.73;;;32.87;;
23802;SDS011;12082;51.786;6.018;2022-11-20T14:00:31;46.67;;;35.10;;
23802;SDS011;12082;51.786;6.018;2022-11-20T14:03:09;44.77;;;33.30;;
23802;SDS011;12082;51.786;6.018;2022-11-20T14:05:45;52.27;;;34.20;;
23802;SDS011;12082;51.786;6.018;2022-11-20T14:08:17;47.67;;;32.83;;
23802;SDS011;12082;51.786;6.018;2022-11-20T14:10:47;49.20;;;34.50;;
23802;SDS011;12082;51.786;6.018;2022-11-20T14:13:19;50.70;;;33.90;;
23802;SDS011;12082;51.786;6.018;2022-11-20T14:15:45;50.47;;;33.50;;
23802;SDS011;12082;51.786;6.018;2022-11-20T14:18:13;52.33;;;34.40;;
23802;SDS011;12082;51.786;6.018;2022-11-20T14:20:39;55.37;;;34.17;;
23802;SDS011;12082;51.786;6.018;2022-11-20T14:23:07;49.40;;;34.17;;
23802;SDS011;12082;51.786;6.018;2022-11-20T14:25:35;53.17;;;34.00;;
23802;SDS011;12082;51.786;6.018;2022-11-20T14:28:01;48.40;;;35.00;;
23802;SDS011;12082;51.786;6.018;2022-11-20T14:30:43;57.77;;;34.07;;
23802;SDS011;12082;51.786;6.018;2022-11-20T14:33:10;52.70;;;34.10;;
23802;SDS011;12082;51.786;6.018;2022-11-20T14:35:37;51.80;;;33.53;;
23802;SDS011;12082;51.786;6.018;2022-11-20T14:38:08;52.00;;;33.83;;
23802;SDS011;12082;51.786;6.018;2022-11-20T14:40:35;54.60;;;33.70;;
23802;SDS011;12082;51.786;6.018;2022-11-20T14:43:02;48.33;;;33.00;;
23802;SDS011;12082;51.786;6.018;2022-11-20T14:45:41;52.90;;;33.77;;
23802;SDS011;12082;51.786;6.018;2022-11-20T14:48:08;61.30;;;34.10;;
23802;SDS011;12082;51.786;6.018;2022-11-20T14:50:35;57.00;;;34.23;;
23802;SDS011;12082;51.786;6.018;2022-11-20T14:53:02;52.83;;;32.07;;
23802;SDS011;12082;51.786;6.018;2022-11-20T14:55:37;55.47;;;32.63;;
23802;SDS011;12082;51.786;6.018;2022-11-20T14:58:05;53.10;;;33.47;;
23802;SDS011;12082;51.786;6.018;2022-11-20T15:00:32;53.90;;;34.13;;
23802;SDS011;12082;51.786;6.018;2022-11-20T15:02:58;50.57;;;33.10;;
23802;SDS011;12082;51.786;6.018;2022-11-20T15:08:10;51.40;;;32.10;;
23802;SDS011;12082;51.786;6.018;2022-11-20T15:10:36;58.87;;;32.93;;
23802;SDS011;12082;51.786;6.018;2022-11-20T15:13:10;54.73;;;33.00;;
23802;SDS011;12082;51.786;6.018;2022-11-20T15:15:45;53.10;;;34.57;;
23802;SDS011;12082;51.786;6.018;2022-11-20T15:18:13;62.43;;;36.33;;
23802;SDS011;12082;51.786;6.018;2022-11-20T15:20:39;60.97;;;35.47;;
23802;SDS011;12082;51.786;6.018;2022-11-20T15:23:10;59.57;;;34.13;;
23802;SDS011;12082;51.786;6.018;2022-11-20T15:25:37;54.27;;;32.17;;
23802;SDS011;12082;51.786;6.018;2022-11-20T15:28:04;61.50;;;33.97;;
23802;SDS011;12082;51.786;6.018;2022-11-20T15:30:30;56.87;;;32.83;;
23802;SDS011;12082;51.786;6.018;2022-11-20T15:32:56;56.93;;;33.63;;